Welcome to Northern Hawkes Bay. New Zealand.
PWS Header
      nz Flag



Hit Counter


W3C Valid W3C Valid logo


    Wairoa

Select any of the Stations below to visit their websites.










Historic Data from Weather Underground
Select the location of interest below. Wairoa is the default. Please have patience, this Data is slow to load in.
Northern Hawkes Bay Historical Data
Daily Summary for July 28, 2017 Units:  English    Metric   Both
« Previous Day
Next Day »
Daily Weekly Monthly Yearly Custom
  High: Low: Average:
Temperature: 51.3 °F 42.8 °F 46 °F
Dew Point: 43 °F 33.4 °F 36.7 °F
Humidity: 85% 55% 70%
Wind Speed: 25.9mph 5.4mph 15.5mph
Wind Gust: 35.8mph - -
Wind- - SW
Pressure: 30.1 in 29.8 in -
Precipitation: 0 in    
Historical Graphs
 
 
Tabular Data for July 28, 2017
Time Temperature Dew Point Pressure Wind Wind Speed Wind Gust Humidity Rainfall Rate (Hourly) solar
00:03 47.3 °F 43 °F 29.8 in SSW 13.6 mph 28.9 mph 85% 0.05 in 21 W/m2
00:08 48.6 °F 43 °F 29.8 in SSW 17.4 mph 28.2 mph 81% 0.05 in 40 W/m2
00:13 48.9 °F 42.1 °F 29.8 in SSW 15.2 mph 28.2 mph 77% 0.05 in 47 W/m2
00:18 48.9 °F 42.4 °F 29.8 in SSW 14.5 mph 28.2 mph 78% 0.05 in 36 W/m2
00:23 48.7 °F 41.9 °F 29.8 in SW 19.7 mph 28.2 mph 77% 0.05 in 24 W/m2
00:28 48.7 °F 41.9 °F 29.8 in SW 19.7 mph 29.8 mph 77% 0.05 in 12 W/m2
00:34 47.7 °F 41.2 °F 29.8 in SSW 15.2 mph 35.8 mph 78% 0.06 in 13 W/m2
00:39 48.2 °F 41.4 °F 29.8 in SSW 13 mph 35.8 mph 77% 0.06 in 18 W/m2
00:44 48.7 °F 40.5 °F 29.8 in SSW 13.6 mph 25.9 mph 73% 0.05 in 12 W/m2
00:49 48.6 °F 41 °F 29.9 in SSW 15.9 mph 26.6 mph 75% 0.05 in 4 W/m2
00:54 46.9 °F 40.5 °F 29.9 in SSW 15.2 mph 29.8 mph 78% 0.06 in 0 W/m2
01:00 46.4 °F 40.6 °F 29.9 in SSW 10.7 mph 29.8 mph 80% 0.05 in 0 W/m2
01:05 47.7 °F 40.5 °F 29.9 in SW 11.4 mph 29.8 mph 76% 0.05 in 0 W/m2
01:10 48.7 °F 40.8 °F 29.9 in SSW 16.8 mph 27.3 mph 74% 0.05 in 0 W/m2
01:15 48.2 °F 41 °F 29.9 in SW 15.9 mph 28.2 mph 76% 0.05 in 0 W/m2
01:20 47.5 °F 41 °F 29.9 in SW 19 mph 28.2 mph 78% 0.05 in 0 W/m2
01:25 47.3 °F 40.8 °F 29.9 in SW 14.5 mph 25.1 mph 78% 0.05 in 0 W/m2
01:30 47.5 °F 41.4 °F 29.9 in SW 18.3 mph 25.9 mph 79% 0.04 in 0 W/m2
01:35 46.8 °F 40.3 °F 29.9 in SW 24.4 mph 30.4 mph 78% 0.04 in 0 W/m2
01:40 46.4 °F 39.9 °F 29.9 in SW 15.2 mph 30.4 mph 78% 0.04 in 0 W/m2
01:45 46.9 °F 40.5 °F 29.9 in SW 13 mph 27.3 mph 78% 0.04 in 0 W/m2
01:50 47.1 °F 40.8 °F 29.9 in SW 14.5 mph 28.2 mph 79% 0.04 in 0 W/m2
01:55 46.6 °F 40.5 °F 29.9 in SW 9.8 mph 28.2 mph 79% 0.02 in 0 W/m2
02:00 45.9 °F 40.6 °F 29.9 in SSW 5.4 mph 28.2 mph 82% 0.02 in 0 W/m2
02:05 45.9 °F 41.4 °F 29.9 in SSW 14.5 mph 22.8 mph 84% 0.04 in 0 W/m2
02:10 46.4 °F 41.5 °F 29.9 in SSW 12.1 mph 23.5 mph 83% 0.04 in 0 W/m2
02:15 46.2 °F 40.6 °F 29.9 in SSW 11.4 mph 23.5 mph 81% 0.06 in 0 W/m2
02:20 45.7 °F 40.3 °F 29.9 in SW 17.4 mph 29.8 mph 81% 0.07 in 0 W/m2
02:30 47.7 °F 37.9 °F 29.9 in SW 13 mph 30.4 mph 69% 0.07 in 0 W/m2
02:35 47.8 °F 39.9 °F 29.9 in SW 19.7 mph 31.1 mph 74% 0.07 in 0 W/m2
02:40 47.1 °F 40.3 °F 29.9 in SW 19.7 mph 31.1 mph 77% 0.08 in 0 W/m2
02:45 45.7 °F 40.5 °F 29.9 in SW 13.6 mph 29.8 mph 82% 0.08 in 0 W/m2
02:50 45.3 °F 40.3 °F 29.9 in SSW 13 mph 29.8 mph 82% 0.09 in 0 W/m2
02:55 45.7 °F 40.3 °F 29.9 in SSW 11.4 mph 21.3 mph 81% 0.08 in 0 W/m2
03:00 45.9 °F 40.6 °F 29.9 in SW 10.7 mph 21.3 mph 82% 0.07 in 0 W/m2
03:05 45.7 °F 40.5 °F 29.9 in SW 22.8 mph 29.8 mph 82% 0.06 in 0 W/m2
03:10 45 °F 39.6 °F 29.9 in SW 14.5 mph 29.8 mph 81% 0.06 in 0 W/m2
03:15 44.8 °F 39.9 °F 29.9 in WSW 11.4 mph 26.6 mph 83% 0.04 in 0 W/m2
03:20 45.1 °F 40.3 °F 29.9 in WSW 10.7 mph 19 mph 83% 0.02 in 0 W/m2
03:25 45.9 °F 40.6 °F 29.9 in WSW 11.4 mph 21.3 mph 82% 0.02 in 0 W/m2
03:30 46.4 °F 39.6 °F 29.9 in WSW 12.1 mph 22.8 mph 77% 0.02 in 0 W/m2
03:35 46.8 °F 39.6 °F 29.9 in SW 13 mph 24.4 mph 76% 0.02 in 0 W/m2
03:40 46.8 °F 39.4 °F 29.9 in SW 16.8 mph 26.6 mph 75% 0.01 in 0 W/m2
03:45 46.6 °F 39 °F 29.9 in WSW 21.3 mph 27.3 mph 75% 0.01 in 0 W/m2
03:50 46.6 °F 39.4 °F 29.9 in WSW 15.2 mph 27.3 mph 76% 0 in 0 W/m2
03:55 46.2 °F 39.4 °F 29.9 in SW 13.6 mph 27.3 mph 77% 0 in 0 W/m2
04:00 45.7 °F 39.9 °F 29.9 in SW 12.1 mph 27.3 mph 80% 0 in 0 W/m2
04:05 45.7 °F 39.9 °F 29.9 in SW 13.6 mph 22.8 mph 80% 0 in 0 W/m2
04:10 45.7 °F 39.9 °F 29.9 in SW 15.2 mph 22.8 mph 80% 0.01 in 0 W/m2
04:15 45.9 °F 39.4 °F 29.9 in SW 13 mph 25.1 mph 78% 0.01 in 0 W/m2
04:20 46 °F 39.6 °F 29.9 in WSW 19.7 mph 28.9 mph 78% 0.01 in 0 W/m2
04:25 45.7 °F 38.7 °F 29.9 in SW 17.4 mph 29.8 mph 76% 0.01 in 0 W/m2
04:30 45.7 °F 38.8 °F 29.9 in SW 22.1 mph 34.9 mph 77% 0.01 in 0 W/m2
04:35 45.5 °F 39 °F 29.9 in SW 17.4 mph 34.9 mph 78% 0.01 in 0 W/m2
04:40 45.3 °F 38.8 °F 29.9 in SW 13.6 mph 33.6 mph 78% 0.01 in 0 W/m2
04:45 45.3 °F 39.2 °F 29.9 in SW 23.5 mph 31.1 mph 79% 0.01 in 0 W/m2
04:50 45 °F 38.5 °F 29.9 in SW 14.5 mph 31.1 mph 78% 0.01 in 0 W/m2
04:55 45 °F 38.8 °F 30 in SW 9.8 mph 31.1 mph 79% 0.01 in 0 W/m2
05:00 45.1 °F 39.7 °F 30 in SW 12.1 mph 25.1 mph 81% 0.01 in 0 W/m2
05:05 45 °F 38.8 °F 29.9 in SW 12.1 mph 25.1 mph 79% 0.01 in 0 W/m2
05:10 45 °F 38.1 °F 29.9 in SW 13.6 mph 22.8 mph 77% 0 in 0 W/m2
05:15 45.1 °F 37.9 °F 29.9 in SW 11.4 mph 22.8 mph 76% 0 in 0 W/m2
05:20 45.1 °F 37.8 °F 30 in WSW 13 mph 21.3 mph 75% 0 in 0 W/m2
05:25 45.5 °F 37.8 °F 30 in SW 13 mph 22.1 mph 74% 0 in 0 W/m2
05:30 45.3 °F 37.6 °F 30 in SW 14.5 mph 26.6 mph 74% 0 in 0 W/m2
05:35 44.8 °F 37.2 °F 30 in SW 13 mph 26.6 mph 75% 0 in 0 W/m2
05:40 44.4 °F 38.3 °F 30 in SW 13 mph 22.8 mph 79% 0 in 0 W/m2
05:45 44.8 °F 37.2 °F 30 in SW 15.2 mph 28.9 mph 75% 0 in 0 W/m2
05:50 45.1 °F 37.4 °F 30 in SW 12.1 mph 28.9 mph 74% 0 in 0 W/m2
05:56 45 °F 36.9 °F 30 in WSW 14.5 mph 25.1 mph 73% 0 in 0 W/m2
06:01 45 °F 36.9 °F 30 in WSW 11.4 mph 20.6 mph 73% 0 in 0 W/m2
06:06 45.1 °F 37 °F 30 in SW 12.1 mph 25.1 mph 73% 0 in 0 W/m2
06:11 45.1 °F 37 °F 30 in SW 12.1 mph 25.1 mph 73% 0 in 0 W/m2
06:16 45.1 °F 36.7 °F 30 in WSW 10.7 mph 25.1 mph 72% 0 in 0 W/m2
06:21 45.1 °F 36.7 °F 30 in WSW 12.1 mph 25.1 mph 72% 0 in 0 W/m2
06:26 45 °F 36.5 °F 30 in WSW 13.6 mph 22.8 mph 72% 0.01 in 0 W/m2
06:31 45 °F 36.5 °F 30 in West 12.1 mph 22.8 mph 72% 0.01 in 0 W/m2
06:36 45 °F 36.5 °F 30 in West 17.4 mph 25.1 mph 72% 0.01 in 0 W/m2
06:41 45.1 °F 35.6 °F 30 in WSW 13.6 mph 25.1 mph 69% 0.01 in 0 W/m2
06:46 45 °F 35.8 °F 30 in SW 15.2 mph 24.4 mph 70% 0.01 in 0 W/m2
06:51 45 °F 35.8 °F 30 in SW 15.2 mph 24.4 mph 70% 0.01 in 0 W/m2
07:10 44.8 °F 36.3 °F 30 in WSW 16.8 mph 29.8 mph 72% 0.01 in 0 W/m2
07:15 45 °F 36.5 °F 30 in WSW 19.7 mph 32 mph 72% 0.01 in 0 W/m2
07:20 44.8 °F 36 °F 30 in SW 17.4 mph 32 mph 71% 0.01 in 0 W/m2
07:25 44.6 °F 36.1 °F 30 in WSW 10.7 mph 29.8 mph 72% 0 in 0 W/m2
07:30 44.6 °F 36.1 °F 30 in SW 17.4 mph 25.1 mph 72% 0 in 0 W/m2
07:35 44.4 °F 36 °F 30 in SW 15.9 mph 25.1 mph 72% 0 in 0 W/m2
07:40 44.2 °F 35.8 °F 30 in SW 11.4 mph 24.4 mph 72% 0 in 0 W/m2
07:45 44.1 °F 35.6 °F 30 in WSW 15.9 mph 25.1 mph 72% 0 in 0 W/m2
07:50 44.2 °F 35.8 °F 30 in SW 13.6 mph 25.9 mph 72% 0 in 0 W/m2
08:10 44.1 °F 36 °F 30 in SW 20.6 mph 29.8 mph 73% 0 in 0 W/m2
08:15 44.2 °F 36.1 °F 30 in SW 19 mph 29.8 mph 73% 0 in 0 W/m2
08:20 44.2 °F 36.1 °F 30 in SW 14.5 mph 28.2 mph 73% 0 in 0 W/m2
08:25 44.2 °F 36.1 °F 30 in SW 16.8 mph 28.2 mph 73% 0 in 0 W/m2
08:30 44.1 °F 36 °F 30 in SW 14.5 mph 25.9 mph 73% 0 in 0 W/m2
08:35 44.2 °F 36.1 °F 30 in WSW 13 mph 24.4 mph 73% 0 in 0 W/m2
08:40 44.2 °F 36.1 °F 30 in SW 11.4 mph 23.5 mph 73% 0 in 0 W/m2
08:45 44.2 °F 36.1 °F 30 in SW 11.4 mph 28.2 mph 73% 0 in 0 W/m2
08:50 44.2 °F 36.1 °F 30 in SW 11.4 mph 28.2 mph 73% 0 in 0 W/m2
08:55 44.1 °F 36 °F 30 in West 16.8 mph 27.3 mph 73% 0 in 0 W/m2
09:00 44.1 °F 36 °F 30 in West 14.5 mph 27.3 mph 73% 0 in 0 W/m2
09:05 44.1 °F 36 °F 30 in WSW 9.2 mph 25.1 mph 73% 0 in 0 W/m2
09:10 43.9 °F 35.8 °F 30 in SW 13.6 mph 25.9 mph 73% 0 in 0 W/m2
09:15 44.1 °F 36.3 °F 30 in SW 13.6 mph 26.6 mph 74% 0 in 0 W/m2
09:20 44.1 °F 36.3 °F 30 in SW 19 mph 26.6 mph 74% 0 in 0 W/m2
09:25 44.1 °F 36.3 °F 30 in SW 19.7 mph 26.6 mph 74% 0 in 0 W/m2
09:30 44.1 °F 36.3 °F 30 in WSW 12.1 mph 26.6 mph 74% 0 in 0 W/m2
09:35 44.1 °F 36 °F 30 in WSW 17.4 mph 26.6 mph 73% 0 in 0 W/m2
09:40 44.1 °F 36 °F 30 in SW 16.8 mph 30.4 mph 73% 0 in 0 W/m2
09:45 43.9 °F 35.8 °F 30 in SW 19.7 mph 30.4 mph 73% 0 in 0 W/m2
09:50 43.9 °F 36.1 °F 30 in SW 23.5 mph 29.8 mph 74% 0 in 0 W/m2
09:55 43.2 °F 36.1 °F 30 in SW 15.2 mph 29.8 mph 76% 0 in 0 W/m2
10:00 42.8 °F 36.7 °F 30 in SW 14.5 mph 28.2 mph 79% 0 in 0 W/m2
10:05 43 °F 36.9 °F 30 in SW 14.5 mph 27.3 mph 79% 0 in 0 W/m2
10:11 43 °F 36.9 °F 30 in SW 15.9 mph 28.9 mph 79% 0 in 0 W/m2
10:16 43.2 °F 36.3 °F 30 in SW 15.2 mph 28.9 mph 77% 0 in 0 W/m2
10:21 43.2 °F 36.3 °F 30 in SW 12.1 mph 25.1 mph 77% 0 in 0 W/m2
10:26 43 °F 36.3 °F 30 in SW 13.6 mph 25.1 mph 77% 0 in 0 W/m2
10:31 43 °F 36 °F 30 in SW 14.5 mph 28.2 mph 76% 0 in 0 W/m2
10:36 43 °F 36 °F 30 in SW 13 mph 28.2 mph 76% 0 in 0 W/m2
10:41 43 °F 35.6 °F 30 in SW 13.6 mph 26.6 mph 75% 0 in 0 W/m2
10:46 43 °F 36 °F 30 in WSW 15.2 mph 26.6 mph 76% 0 in 0 W/m2
10:51 43.2 °F 36.1 °F 30 in WSW 15.9 mph 22.8 mph 76% 0 in 0 W/m2
10:56 43.2 °F 35.8 °F 30 in WSW 17.4 mph 25.9 mph 75% 0 in 0 W/m2
11:01 43.2 °F 35.8 °F 30 in SW 14.5 mph 25.9 mph 75% 0 in 0 W/m2
11:06 43.2 °F 35.4 °F 30 in SSW 15.9 mph 26.6 mph 74% 0 in 0 W/m2
11:11 43.2 °F 35.8 °F 30 in SW 11.4 mph 26.6 mph 75% 0 in 0 W/m2
11:16 43.2 °F 35.8 °F 30 in SW 14.5 mph 24.4 mph 75% 0 in 0 W/m2
11:21 43.2 °F 35.8 °F 30 in SW 15.9 mph 24.4 mph 75% 0 in 0 W/m2
11:26 43.5 °F 36.1 °F 30 in SW 17.4 mph 26.6 mph 75% 0 in 0 W/m2
11:31 43.2 °F 35.4 °F 30 in SW 10.7 mph 27.3 mph 74% 0 in 0 W/m2
11:36 43.2 °F 35.4 °F 30 in SW 13.6 mph 27.3 mph 74% 0 in 0 W/m2
11:41 43.5 °F 36.1 °F 30 in WSW 20.6 mph 26.6 mph 75% 0 in 0 W/m2
11:46 43.5 °F 35.8 °F 30 in WSW 15.9 mph 26.6 mph 74% 0 in 0 W/m2
11:51 43.5 °F 35.8 °F 30 in WSW 18.3 mph 26.6 mph 74% 0 in 0 W/m2
11:56 43.5 °F 35.8 °F 30 in WSW 25.9 mph 32.7 mph 74% 0 in 0 W/m2
12:01 43.5 °F 35.4 °F 30 in SW 15.2 mph 32.7 mph 73% 0 in 0 W/m2
12:06 43.5 °F 35.4 °F 30 in WSW 18.3 mph 29.8 mph 73% 0 in 0 W/m2
12:11 43.5 °F 35.4 °F 30 in WSW 13.6 mph 28.9 mph 73% 0 in 0 W/m2
12:16 43.5 °F 35.4 °F 30 in WSW 10.7 mph 27.3 mph 73% 0 in 0 W/m2
12:22 43.5 °F 35.4 °F 30 in WSW 14.5 mph 27.3 mph 73% 0 in 0 W/m2
12:27 43.5 °F 35.4 °F 30 in WSW 10.7 mph 24.4 mph 73% 0 in 0 W/m2
12:32 43.5 °F 35.4 °F 30 in SW 15.9 mph 24.4 mph 73% 0 in 0 W/m2
12:37 43.5 °F 35.8 °F 30 in SW 20.6 mph 28.9 mph 74% 0 in 0 W/m2
12:42 43.5 °F 35.4 °F 30 in SW 16.8 mph 28.9 mph 73% 0 in 0 W/m2
12:47 43.7 °F 35.6 °F 30 in WSW 22.1 mph 28.9 mph 73% 0 in 0 W/m2
12:57 43.7 °F 35.6 °F 30 in SW 18.3 mph 34.2 mph 73% 0 in 0 W/m2
13:02 43.5 °F 35.4 °F 30 in WSW 15.9 mph 34.2 mph 73% 0 in 0 W/m2
13:07 43.5 °F 35.4 °F 30 in West 19 mph 27.3 mph 73% 0 in 0 W/m2
13:12 43.5 °F 35.8 °F 30 in WSW 19.7 mph 28.9 mph 74% 0 in 0 W/m2
13:17 43.5 °F 35.8 °F 30 in SW 16.8 mph 28.9 mph 74% 0 in 0 W/m2
13:22 43.5 °F 35.8 °F 30 in SW 14.5 mph 28.9 mph 74% 0 in 0 W/m2
13:27 43.5 °F 35.4 °F 30 in SW 21.3 mph 28.9 mph 73% 0 in 0 W/m2
13:32 43.5 °F 35.1 °F 30 in WSW 15.9 mph 28.9 mph 72% 0 in 0 W/m2
13:37 43.5 °F 35.4 °F 30 in WSW 22.8 mph 32 mph 73% 0 in 0 W/m2
13:42 43.5 °F 35.1 °F 30 in SW 20.6 mph 32 mph 72% 0 in 0 W/m2
13:47 43.7 °F 35.6 °F 30 in SW 16.8 mph 32 mph 73% 0 in 0 W/m2
13:48 43.5 °F 35.1 °F 30 in SW 16.8 mph 31.1 mph 72% 0 in 0 W/m2
13:58 43.7 °F 35.2 °F 30 in WSW 11.4 mph 28.9 mph 72% 0 in 0 W/m2
14:03 43.7 °F 35.2 °F 30 in SW 15.2 mph 28.9 mph 72% 0 in 0 W/m2
14:08 43.9 °F 35.4 °F 30.1 in SW 13.6 mph 27.3 mph 72% 0 in 0 W/m2
14:13 43.9 °F 35.1 °F 30.1 in SW 14.5 mph 28.9 mph 71% 0 in 0 W/m2
14:18 43.9 °F 35.4 °F 30.1 in SW 15.9 mph 28.9 mph 72% 0 in 0 W/m2
14:23 43.5 °F 35.1 °F 30.1 in SW 14.5 mph 26.6 mph 72% 0 in 0 W/m2
14:28 43.2 °F 34.9 °F 30.1 in SW 21.3 mph 30.4 mph 72% 0 in 0 W/m2
14:33 43.5 °F 35.1 °F 30.1 in WSW 17.4 mph 30.4 mph 72% 0 in 0 W/m2
14:38 43.2 °F 34.9 °F 30.1 in SW 17.4 mph 30.4 mph 72% 0 in 0 W/m2
14:43 43.5 °F 35.1 °F 30.1 in SW 12.1 mph 22.8 mph 72% 0 in 0 W/m2
14:48 43.5 °F 35.1 °F 30.1 in SW 13.6 mph 26.6 mph 72% 0 in 0 W/m2
14:53 43.5 °F 34.9 °F 30.1 in SW 18.3 mph 27.3 mph 71% 0 in 0 W/m2
14:58 43.5 °F 35.1 °F 30.1 in WSW 13 mph 27.3 mph 72% 0 in 0 W/m2
15:03 43.5 °F 35.1 °F 30.1 in West 15.2 mph 26.6 mph 72% 0 in 0 W/m2
15:08 43.9 °F 35.1 °F 30.1 in SW 12.1 mph 28.2 mph 71% 0 in 0 W/m2
15:13 43.9 °F 34.3 °F 30.1 in SW 15.9 mph 28.2 mph 69% 0 in 0 W/m2
15:18 43.9 °F 34.7 °F 30.1 in SW 15.2 mph 28.2 mph 70% 0 in 0 W/m2
15:23 44.1 °F 34.2 °F 30.1 in SW 18.3 mph 28.2 mph 68% 0 in 0 W/m2
15:28 44.1 °F 33.8 °F 30.1 in WSW 19 mph 31.1 mph 67% 0 in 3 W/m2
15:33 44.1 °F 33.8 °F 30.1 in SW 16.8 mph 31.1 mph 67% 0 in 5 W/m2
15:38 44.1 °F 34.2 °F 30.1 in SW 15.9 mph 28.2 mph 68% 0 in 8 W/m2
15:43 44.1 °F 33.8 °F 30.1 in WSW 14.5 mph 27.3 mph 67% 0 in 13 W/m2
15:48 44.1 °F 33.8 °F 30.1 in West 15.2 mph 28.9 mph 67% 0 in 18 W/m2
15:53 44.1 °F 33.8 °F 30.1 in WSW 11.4 mph 28.9 mph 67% 0 in 21 W/m2
15:58 44.2 °F 33.6 °F 30.1 in SW 14.5 mph 27.3 mph 66% 0 in 19 W/m2
16:03 44.2 °F 34.3 °F 30.1 in SW 11.4 mph 27.3 mph 68% 0 in 19 W/m2
16:08 44.2 °F 34 °F 30.1 in SW 15.9 mph 29.8 mph 67% 0 in 22 W/m2
16:13 44.4 °F 33.8 °F 30.1 in WSW 16.8 mph 32 mph 66% 0 in 24 W/m2
16:18 44.4 °F 33.8 °F 30.1 in WSW 19.7 mph 32 mph 66% 0 in 27 W/m2
16:23 44.4 °F 33.4 °F 30.1 in SW 13.6 mph 31.1 mph 65% 0 in 43 W/m2
16:28 44.8 °F 33.4 °F 30.1 in SW 14.5 mph 31.1 mph 64% 0 in 57 W/m2
16:33 45.3 °F 34 °F 30.1 in WSW 19.7 mph 28.9 mph 64% 0 in 67 W/m2
16:38 45.1 °F 33.6 °F 30.1 in SW 18.3 mph 26.6 mph 64% 0 in 51 W/m2
16:43 45.3 °F 34 °F 30.1 in SW 18.3 mph 26.6 mph 64% 0 in 179 W/m2
16:48 45.5 °F 34.3 °F 30.1 in WSW 12.1 mph 26.6 mph 65% 0 in 67 W/m2
16:53 45.7 °F 34.2 °F 30.1 in WSW 13.6 mph 27.3 mph 64% 0 in 54 W/m2
16:58 45.3 °F 34 °F 30.1 in WSW 15.2 mph 27.3 mph 64% 0 in 188 W/m2
17:03 46 °F 34.5 °F 30.1 in SW 10.7 mph 26.6 mph 64% 0 in 123 W/m2
17:08 45.7 °F 34.2 °F 30.1 in SW 13.6 mph 27.3 mph 64% 0 in 75 W/m2
17:13 45.3 °F 34.3 °F 30.1 in SW 13 mph 27.3 mph 65% 0 in 66 W/m2
17:18 45.1 °F 34.2 °F 30.1 in WSW 13 mph 29.8 mph 65% 0 in 61 W/m2
17:23 45.1 °F 34.2 °F 30.1 in SW 15.9 mph 29.8 mph 65% 0 in 57 W/m2
17:29 45.5 °F 34 °F 30.1 in SW 18.3 mph 30.4 mph 64% 0 in 243 W/m2
17:34 46.2 °F 34.7 °F 30.1 in SW 19 mph 30.4 mph 64% 0 in 162 W/m2
17:52 47.1 °F 34.3 °F 30.1 in WSW 18.3 mph 34.2 mph 61% 0 in 68 W/m2
17:57 47.1 °F 34 °F 30.1 in WSW 18.3 mph 33.6 mph 60% 0 in 69 W/m2
18:02 47.5 °F 35.4 °F 30.1 in WSW 21.3 mph 33.6 mph 63% 0 in 74 W/m2
18:07 47.5 °F 34.7 °F 30.1 in WSW 19 mph 30.4 mph 61% 0 in 92 W/m2
18:12 47.5 °F 35.1 °F 30.1 in WSW 12.1 mph 30.4 mph 62% 0 in 78 W/m2
18:17 47.1 °F 35.2 °F 30.1 in SW 15.2 mph 28.9 mph 63% 0 in 68 W/m2
18:27 47.8 °F 36 °F 30.1 in SW 17.4 mph 30.4 mph 63% 0 in 67 W/m2
18:32 47.8 °F 34.5 °F 30.1 in SW 19 mph 31.1 mph 60% 0 in 69 W/m2
18:37 48 °F 35.2 °F 30.1 in SW 19 mph 32.7 mph 61% 0 in 76 W/m2
18:42 48.4 °F 34.7 °F 30.1 in SW 14.5 mph 32.7 mph 59% 0 in 88 W/m2
18:47 48.4 °F 34.3 °F 30.1 in SW 17.4 mph 28.9 mph 58% 0 in 135 W/m2
18:52 48.4 °F 34.3 °F 30.1 in SW 19 mph 28.9 mph 58% 0 in 156 W/m2
18:57 48.7 °F 34.5 °F 30.1 in SW 11.4 mph 28.9 mph 58% 0 in 227 W/m2
19:02 49.1 °F 35.1 °F 30.1 in SW 14.5 mph 29.8 mph 58% 0 in 264 W/m2
19:07 49.1 °F 35.1 °F 30.1 in SW 19 mph 29.8 mph 58% 0 in 268 W/m2
19:12 48.9 °F 34.3 °F 30.1 in WSW 19 mph 31.1 mph 57% 0 in 313 W/m2
19:17 49.1 °F 35.8 °F 30.1 in WSW 19.7 mph 31.1 mph 60% 0 in 275 W/m2
19:22 48.9 °F 35.8 °F 30.1 in SW 19.7 mph 29.8 mph 60% 0 in 303 W/m2
19:27 49.3 °F 36.3 °F 30.1 in SW 16.8 mph 28.9 mph 61% 0 in 309 W/m2
19:32 49.3 °F 36.3 °F 30.1 in WSW 19 mph 31.1 mph 61% 0 in 289 W/m2
19:37 48.9 °F 35.2 °F 30.1 in SW 20.6 mph 31.1 mph 59% 0 in 280 W/m2
19:42 49.5 °F 36.1 °F 30.1 in SW 17.4 mph 29.8 mph 60% 0 in 314 W/m2
19:47 49.5 °F 36.1 °F 30.1 in SW 15.9 mph 28.9 mph 60% 0 in 261 W/m2
19:52 49.3 °F 36.9 °F 30.1 in SW 15.9 mph 25.1 mph 62% 0 in 266 W/m2
19:57 50 °F 36.1 °F 30.1 in WSW 15.9 mph 25.9 mph 59% 0 in 245 W/m2
20:02 50 °F 34.9 °F 30.1 in WSW 17.4 mph 25.9 mph 56% 0 in 248 W/m2
20:07 50 °F 34.9 °F 30.1 in SW 14.5 mph 27.3 mph 56% 0 in 240 W/m2
20:12 50.2 °F 36.3 °F 30.1 in SW 12.1 mph 27.3 mph 59% 0 in 226 W/m2
20:17 49.8 °F 35.2 °F 30.1 in WSW 14.5 mph 28.9 mph 57% 0 in 117 W/m2
20:27 50.4 °F 36.1 °F 30.1 in SW 14.5 mph 33.6 mph 58% 0 in 208 W/m2
20:32 50.7 °F 36.1 °F 30.1 in SW 15.9 mph 33.6 mph 57% 0 in 79 W/m2
20:37 50.2 °F 36.9 °F 30.1 in SW 12.1 mph 29.8 mph 60% 0 in 165 W/m2
20:42 50 °F 35.8 °F 30.1 in SW 19 mph 29.8 mph 58% 0 in 69 W/m2
20:47 50.2 °F 36 °F 30.1 in SW 12.1 mph 28.9 mph 58% 0 in 109 W/m2
20:52 50 °F 37 °F 30.1 in SSW 15.2 mph 28.9 mph 61% 0 in 154 W/m2
20:57 49.5 °F 37.8 °F 30.1 in SW 14.5 mph 27.3 mph 64% 0 in 147 W/m2
21:02 50.4 °F 38.3 °F 30.1 in SW 12.1 mph 27.3 mph 63% 0 in 121 W/m2
21:07 50.5 °F 36.9 °F 30.1 in SW 11.4 mph 25.9 mph 59% 0 in 128 W/m2
21:12 50 °F 36.1 °F 30.1 in SW 15.9 mph 25.9 mph 59% 0 in 88 W/m2
21:17 49.6 °F 36.3 °F 30.1 in SW 19.7 mph 26.6 mph 60% 0 in 126 W/m2
21:22 50.4 °F 36.7 °F 30.1 in WSW 13.6 mph 26.6 mph 59% 0 in 113 W/m2
21:27 50 °F 36.1 °F 30.1 in WSW 19 mph 29.8 mph 59% 0 in 156 W/m2
21:32 50.2 °F 36 °F 30.1 in SW 15.2 mph 29.8 mph 58% 0 in 153 W/m2
21:37 49.8 °F 35.6 °F 30.1 in SW 16.8 mph 28.2 mph 58% 0 in 142 W/m2
21:42 50.2 °F 36.3 °F 30.1 in SW 15.9 mph 28.2 mph 59% 0 in 121 W/m2
21:47 50 °F 34.9 °F 30.1 in SW 18.3 mph 27.3 mph 56% 0 in 129 W/m2
21:52 49.6 °F 36.3 °F 30.1 in SW 14.5 mph 28.2 mph 60% 0 in 116 W/m2
21:57 49.3 °F 35.6 °F 30.1 in SW 17.4 mph 28.2 mph 59% 0 in 138 W/m2
22:02 49.5 °F 36.1 °F 30.1 in SSW 16.8 mph 26.6 mph 60% 0 in 99 W/m2
22:07 49.1 °F 35.4 °F 30.1 in SW 21.3 mph 29.8 mph 59% 0 in 117 W/m2
22:12 50 °F 37 °F 30.1 in SW 21.3 mph 29.8 mph 61% 0 in 112 W/m2
22:17 50 °F 35.8 °F 30.1 in SW 23.5 mph 33.6 mph 58% 0 in 99 W/m2
22:22 49.5 °F 35.8 °F 30.1 in SW 13.6 mph 33.6 mph 59% 0 in 88 W/m2
22:27 49.1 °F 35.4 °F 30.1 in SW 20.6 mph 31.1 mph 59% 0 in 135 W/m2
22:32 49.1 °F 35.1 °F 30.1 in WSW 17.4 mph 31.1 mph 58% 0 in 139 W/m2
22:37 49.1 °F 34.5 °F 30.1 in SW 16.8 mph 29.8 mph 57% 0 in 168 W/m2
22:42 50 °F 35.8 °F 30.1 in SW 17.4 mph 29.8 mph 58% 0 in 103 W/m2
22:47 49.6 °F 36 °F 30.1 in SW 11.4 mph 28.9 mph 59% 0 in 107 W/m2
22:52 49.5 °F 35.2 °F 30.1 in SW 15.9 mph 28.9 mph 58% 0 in 113 W/m2
22:57 49.5 °F 35.8 °F 30.1 in SW 15.9 mph 25.9 mph 59% 0 in 85 W/m2
23:02 49.3 °F 35.1 °F 30.1 in SW 14.5 mph 22.8 mph 58% 0 in 103 W/m2
23:07 49.5 °F 35.2 °F 30.1 in SW 14.5 mph 25.9 mph 58% 0 in 71 W/m2
23:12 49.5 °F 35.8 °F 30.1 in SW 18.3 mph 25.9 mph 59% 0 in 94 W/m2
23:17 50 °F 35.4 °F 30.1 in SW 13.6 mph 23.5 mph 57% 0 in 139 W/m2
23:22 50.2 °F 35.4 °F 30.1 in SW 9.8 mph 23.5 mph 57% 0 in 140 W/m2
23:27 50.5 °F 35.1 °F 30.1 in SW 14.5 mph 26.6 mph 55% 0 in 136 W/m2
23:32 50.9 °F 35.8 °F 30.1 in SW 13 mph 28.9 mph 56% 0 in 135 W/m2
23:37 51.3 °F 36.7 °F 30.1 in SW 19.7 mph 28.9 mph 57% 0 in 153 W/m2
23:42 51.1 °F 36 °F 30.1 in SW 14.5 mph 31.1 mph 56% 0 in 134 W/m2
23:47 50.5 °F 35.4 °F 30.1 in SW 10.7 mph 31.1 mph 56% 0 in 130 W/m2
23:52 51.1 °F 36.3 °F 30.1 in SW 10.7 mph 28.2 mph 57% 0 in 108 W/m2
23:57 51.1 °F 36 °F 30.1 in SW 11.4 mph 25.1 mph 56% 0 in 67 W/m2
Northern Hawkes Bay. New Zealand Historic Data
Compliments of Weather Underground - 2 mb